sensor_id;sensor_type;location;lat;lon;timestamp;temperature;humidity
74484;SHT31;62942;52.462;10.846;2023-12-28T00:00:43;8.2;72.6
74484;SHT31;62942;52.462;10.846;2023-12-28T00:01:53;8.1;73
74484;SHT31;62942;52.462;10.846;2023-12-28T00:02:53;8.2;72.8
74484;SHT31;62942;52.462;10.846;2023-12-28T00:03:53;8.2;72.9
74484;SHT31;62942;52.462;10.846;2023-12-28T00:05:03;8.2;72.6
74484;SHT31;62942;52.462;10.846;2023-12-28T00:06:03;8.2;72.8
74484;SHT31;62942;52.462;10.846;2023-12-28T00:07:13;8.2;72.1
74484;SHT31;62942;52.462;10.846;2023-12-28T00:08:13;8.2;72.3
74484;SHT31;62942;52.462;10.846;2023-12-28T00:09:13;8.2;72.5
74484;SHT31;62942;52.462;10.846;2023-12-28T00:10:23;8.2;71.8
74484;SHT31;62942;52.462;10.846;2023-12-28T00:11:33;8.3;71.7
74484;SHT31;62942;52.462;10.846;2023-12-28T00:12:43;8.3;71.6
74484;SHT31;62942;52.462;10.846;2023-12-28T00:13:53;8.3;71.4
74484;SHT31;62942;52.462;10.846;2023-12-28T00:15:03;8.4;71.3
74484;SHT31;62942;52.462;10.846;2023-12-28T00:16:13;8.4;71.3
74484;SHT31;62942;52.462;10.846;2023-12-28T00:17:23;8.4;71.4
74484;SHT31;62942;52.462;10.846;2023-12-28T00:18:33;8.4;70.9
74484;SHT31;62942;52.462;10.846;2023-12-28T00:19:43;8.4;70.8
74484;SHT31;62942;52.462;10.846;2023-12-28T00:20:53;8.4;70.8
74484;SHT31;62942;52.462;10.846;2023-12-28T00:22:03;8.4;70.5
74484;SHT31;62942;52.462;10.846;2023-12-28T00:23:03;8.5;70.7
74484;SHT31;62942;52.462;10.846;2023-12-28T00:24:14;8.5;70.7
74484;SHT31;62942;52.462;10.846;2023-12-28T00:25:23;8.5;71.2
74484;SHT31;62942;52.462;10.846;2023-12-28T00:26:33;8.5;71
74484;SHT31;62942;52.462;10.846;2023-12-28T00:27:43;8.5;70.8
74484;SHT31;62942;52.462;10.846;2023-12-28T00:28:53;8.5;71
74484;SHT31;62942;52.462;10.846;2023-12-28T00:29:53;8.5;70.9
74484;SHT31;62942;52.462;10.846;2023-12-28T00:30:53;8.5;70.5
74484;SHT31;62942;52.462;10.846;2023-12-28T00:32:03;8.5;70.8
74484;SHT31;62942;52.462;10.846;2023-12-28T00:33:13;8.5;71.2
74484;SHT31;62942;52.462;10.846;2023-12-28T00:34:23;8.5;70.6
74484;SHT31;62942;52.462;10.846;2023-12-28T00:35:23;8.5;71
74484;SHT31;62942;52.462;10.846;2023-12-28T00:36:23;8.5;70.7
74484;SHT31;62942;52.462;10.846;2023-12-28T00:37:23;8.6;70.4
74484;SHT31;62942;52.462;10.846;2023-12-28T00:38:33;8.6;70.7
74484;SHT31;62942;52.462;10.846;2023-12-28T00:39:33;8.6;70.8
74484;SHT31;62942;52.462;10.846;2023-12-28T00:40:33;8.7;70.5
74484;SHT31;62942;52.462;10.846;2023-12-28T00:41:33;8.7;70.4
74484;SHT31;62942;52.462;10.846;2023-12-28T00:42:43;8.7;70.4
74484;SHT31;62942;52.462;10.846;2023-12-28T00:43:53;8.7;70.2
74484;SHT31;62942;52.462;10.846;2023-12-28T00:45:03;8.7;70.1
74484;SHT31;62942;52.462;10.846;2023-12-28T00:46:13;8.8;69.9
74484;SHT31;62942;52.462;10.846;2023-12-28T00:47:13;8.8;70.3
74484;SHT31;62942;52.462;10.846;2023-12-28T00:48:23;8.8;70.1
74484;SHT31;62942;52.462;10.846;2023-12-28T00:49:23;8.8;70.4
74484;SHT31;62942;52.462;10.846;2023-12-28T00:50:23;8.8;70.3
74484;SHT31;62942;52.462;10.846;2023-12-28T00:51:33;8.8;70.2
74484;SHT31;62942;52.462;10.846;2023-12-28T00:52:33;8.8;69.8
74484;SHT31;62942;52.462;10.846;2023-12-28T00:53:43;8.8;69.9
74484;SHT31;62942;52.462;10.846;2023-12-28T00:54:43;8.9;69.6
74484;SHT31;62942;52.462;10.846;2023-12-28T00:55:43;8.9;69.8
74484;SHT31;62942;52.462;10.846;2023-12-28T00:56:53;8.9;69.3
74484;SHT31;62942;52.462;10.846;2023-12-28T00:58:03;9;69.7
74484;SHT31;62942;52.462;10.846;2023-12-28T00:59:13;9;69.1
74484;SHT31;62942;52.462;10.846;2023-12-28T01:00:23;9;69.5
74484;SHT31;62942;52.462;10.846;2023-12-28T01:01:23;9;69.5
74484;SHT31;62942;52.462;10.846;2023-12-28T01:02:23;9.1;69.3
74484;SHT31;62942;52.462;10.846;2023-12-28T01:03:23;9.1;69
74484;SHT31;62942;52.462;10.846;2023-12-28T01:04:33;9.1;69.1
74484;SHT31;62942;52.462;10.846;2023-12-28T01:05:33;9.1;69.2
74484;SHT31;62942;52.462;10.846;2023-12-28T01:06:33;9.1;68.7
74484;SHT31;62942;52.462;10.846;2023-12-28T01:07:43;9.2;68.8
74484;SHT31;62942;52.462;10.846;2023-12-28T01:08:43;9.2;69.1
74484;SHT31;62942;52.462;10.846;2023-12-28T01:09:53;9.2;69.1
74484;SHT31;62942;52.462;10.846;2023-12-28T01:11:03;9.2;69
74484;SHT31;62942;52.462;10.846;2023-12-28T01:12:13;9.2;68.9
74484;SHT31;62942;52.462;10.846;2023-12-28T01:13:13;9.2;69
74484;SHT31;62942;52.462;10.846;2023-12-28T01:14:23;9.2;68.6
74484;SHT31;62942;52.462;10.846;2023-12-28T01:15:33;9.2;68.8
74484;SHT31;62942;52.462;10.846;2023-12-28T01:16:33;9.3;69
74484;SHT31;62942;52.462;10.846;2023-12-28T01:17:43;9.3;68.5
74484;SHT31;62942;52.462;10.846;2023-12-28T01:18:53;9.3;68.2
74484;SHT31;62942;52.462;10.846;2023-12-28T01:19:53;9.3;68.1
74484;SHT31;62942;52.462;10.846;2023-12-28T01:20:53;9.3;68.4
74484;SHT31;62942;52.462;10.846;2023-12-28T01:22:03;9.3;68.5
74484;SHT31;62942;52.462;10.846;2023-12-28T01:23:13;9.4;68.5
74484;SHT31;62942;52.462;10.846;2023-12-28T01:24:13;9.4;68.4
74484;SHT31;62942;52.462;10.846;2023-12-28T01:25:23;9.3;68.6
74484;SHT31;62942;52.462;10.846;2023-12-28T01:26:23;9.4;68.4
74484;SHT31;62942;52.462;10.846;2023-12-28T01:27:33;9.4;68.2
74484;SHT31;62942;52.462;10.846;2023-12-28T01:28:33;9.4;68.3
74484;SHT31;62942;52.462;10.846;2023-12-28T01:29:33;9.4;68.5
74484;SHT31;62942;52.462;10.846;2023-12-28T01:30:43;9.4;68.2
74484;SHT31;62942;52.462;10.846;2023-12-28T01:31:43;9.4;68
74484;SHT31;62942;52.462;10.846;2023-12-28T01:32:43;9.4;68.1
74484;SHT31;62942;52.462;10.846;2023-12-28T01:33:53;9.4;67.9
74484;SHT31;62942;52.462;10.846;2023-12-28T01:35:03;9.5;68.1
74484;SHT31;62942;52.462;10.846;2023-12-28T01:36:13;9.5;67.5
74484;SHT31;62942;52.462;10.846;2023-12-28T01:37:03;9.5;67.6
74484;SHT31;62942;52.462;10.846;2023-12-28T01:38:13;9.5;68
74484;SHT31;62942;52.462;10.846;2023-12-28T01:39:23;9.5;67.8
74484;SHT31;62942;52.462;10.846;2023-12-28T01:40:33;9.6;67.9
74484;SHT31;62942;52.462;10.846;2023-12-28T01:41:43;9.5;68.2
74484;SHT31;62942;52.462;10.846;2023-12-28T01:42:53;9.5;68.3
74484;SHT31;62942;52.462;10.846;2023-12-28T01:44:03;9.5;68.5
74484;SHT31;62942;52.462;10.846;2023-12-28T01:45:13;9.5;68.5
74484;SHT31;62942;52.462;10.846;2023-12-28T01:46:13;9.5;68.6
74484;SHT31;62942;52.462;10.846;2023-12-28T01:47:23;9.5;68.5
74484;SHT31;62942;52.462;10.846;2023-12-28T01:48:33;9.5;69.1
74484;SHT31;62942;52.462;10.846;2023-12-28T01:49:33;9.5;69.3
74484;SHT31;62942;52.462;10.846;2023-12-28T01:50:33;9.5;69.4
74484;SHT31;62942;52.462;10.846;2023-12-28T01:51:33;9.5;69.7
74484;SHT31;62942;52.462;10.846;2023-12-28T01:52:33;9.4;70
74484;SHT31;62942;52.462;10.846;2023-12-28T01:53:43;9.4;70.7
74484;SHT31;62942;52.462;10.846;2023-12-28T01:54:43;9.4;70.9
74484;SHT31;62942;52.462;10.846;2023-12-28T01:55:43;9.3;71.3
74484;SHT31;62942;52.462;10.846;2023-12-28T01:56:43;9.2;71.7
74484;SHT31;62942;52.462;10.846;2023-12-28T01:57:53;9.2;72.2
74484;SHT31;62942;52.462;10.846;2023-12-28T01:58:53;9.1;72.8
74484;SHT31;62942;52.462;10.846;2023-12-28T01:59:53;9.1;72.8
74484;SHT31;62942;52.462;10.846;2023-12-28T02:01:03;9.1;73
74484;SHT31;62942;52.462;10.846;2023-12-28T02:02:13;9.1;73.2
74484;SHT31;62942;52.462;10.846;2023-12-28T02:03:23;9;73.4
74484;SHT31;62942;52.462;10.846;2023-12-28T02:04:23;9;73.1
74484;SHT31;62942;52.462;10.846;2023-12-28T02:05:33;9;73.2
74484;SHT31;62942;52.462;10.846;2023-12-28T02:06:33;9;73.3
74484;SHT31;62942;52.462;10.846;2023-12-28T02:07:43;9;73.4
74484;SHT31;62942;52.462;10.846;2023-12-28T02:08:53;9;73.6
74484;SHT31;62942;52.462;10.846;2023-12-28T02:09:53;9;73.5
74484;SHT31;62942;52.462;10.846;2023-12-28T02:10:53;9;73.8
74484;SHT31;62942;52.462;10.846;2023-12-28T02:11:53;9;73.8
74484;SHT31;62942;52.462;10.846;2023-12-28T02:13:03;9;73.9
74484;SHT31;62942;52.462;10.846;2023-12-28T02:14:13;8.9;74
74484;SHT31;62942;52.462;10.846;2023-12-28T02:15:13;9;74.1
74484;SHT31;62942;52.462;10.846;2023-12-28T02:16:15;8.9;74.1
74484;SHT31;62942;52.462;10.846;2023-12-28T02:17:24;9;74.1
74484;SHT31;62942;52.462;10.846;2023-12-28T02:18:23;9;74.4
74484;SHT31;62942;52.462;10.846;2023-12-28T02:19:39;8.9;74.4
74484;SHT31;62942;52.462;10.846;2023-12-28T02:20:33;9;74.4
74484;SHT31;62942;52.462;10.846;2023-12-28T02:21:33;8.9;74.1
74484;SHT31;62942;52.462;10.846;2023-12-28T02:22:43;8.9;74.2
74484;SHT31;62942;52.462;10.846;2023-12-28T02:23:53;8.9;74.4
74484;SHT31;62942;52.462;10.846;2023-12-28T02:24:56;8.9;74.5
74484;SHT31;62942;52.462;10.846;2023-12-28T02:26:03;8.9;74.5
74484;SHT31;62942;52.462;10.846;2023-12-28T02:27:13;9;74.3
74484;SHT31;62942;52.462;10.846;2023-12-28T02:28:23;9;74.3
74484;SHT31;62942;52.462;10.846;2023-12-28T02:29:33;9;74.5
74484;SHT31;62942;52.462;10.846;2023-12-28T02:30:33;9;74.4
74484;SHT31;62942;52.462;10.846;2023-12-28T02:31:45;9;74.5
74484;SHT31;62942;52.462;10.846;2023-12-28T02:32:54;9;74.5
74484;SHT31;62942;52.462;10.846;2023-12-28T02:33:54;9;74.5
74484;SHT31;62942;52.462;10.846;2023-12-28T02:35:06;8.9;74.5
74484;SHT31;62942;52.462;10.846;2023-12-28T02:36:13;9;74.5
74484;SHT31;62942;52.462;10.846;2023-12-28T02:37:13;9;74.6
74484;SHT31;62942;52.462;10.846;2023-12-28T02:38:23;9;74.7
74484;SHT31;62942;52.462;10.846;2023-12-28T02:39:33;8.9;74.9
74484;SHT31;62942;52.462;10.846;2023-12-28T02:40:35;8.9;74.9
74484;SHT31;62942;52.462;10.846;2023-12-28T02:41:43;9;75
74484;SHT31;62942;52.462;10.846;2023-12-28T02:42:43;9;75
74484;SHT31;62942;52.462;10.846;2023-12-28T02:43:53;9;75.2
74484;SHT31;62942;52.462;10.846;2023-12-28T02:45:03;9;75.2
74484;SHT31;62942;52.462;10.846;2023-12-28T02:46:03;8.9;75.3
74484;SHT31;62942;52.462;10.846;2023-12-28T02:47:13;9;75.3
74484;SHT31;62942;52.462;10.846;2023-12-28T02:48:13;8.9;75.3
74484;SHT31;62942;52.462;10.846;2023-12-28T02:49:23;9;75.4
74484;SHT31;62942;52.462;10.846;2023-12-28T02:50:33;9;75.3
74484;SHT31;62942;52.462;10.846;2023-12-28T02:51:43;9;75.3
74484;SHT31;62942;52.462;10.846;2023-12-28T02:52:43;9;75.5
74484;SHT31;62942;52.462;10.846;2023-12-28T02:53:53;9;75.4
74484;SHT31;62942;52.462;10.846;2023-12-28T02:55:03;9;75.2
74484;SHT31;62942;52.462;10.846;2023-12-28T02:56:13;9.1;75.3
74484;SHT31;62942;52.462;10.846;2023-12-28T02:57:13;9;75.3
74484;SHT31;62942;52.462;10.846;2023-12-28T02:58:23;9.1;75.3
74484;SHT31;62942;52.462;10.846;2023-12-28T02:59:33;9;75.5
74484;SHT31;62942;52.462;10.846;2023-12-28T03:00:43;9;75.5
74484;SHT31;62942;52.462;10.846;2023-12-28T03:01:43;9;75.6
74484;SHT31;62942;52.462;10.846;2023-12-28T03:02:53;9;75.8
74484;SHT31;62942;52.462;10.846;2023-12-28T03:04:03;9;75.8
74484;SHT31;62942;52.462;10.846;2023-12-28T03:05:13;9;75.9
74484;SHT31;62942;52.462;10.846;2023-12-28T03:06:23;9.1;76.2
74484;SHT31;62942;52.462;10.846;2023-12-28T03:07:33;9.1;76.3
74484;SHT31;62942;52.462;10.846;2023-12-28T03:08:43;9.1;76.3
74484;SHT31;62942;52.462;10.846;2023-12-28T03:09:43;9.1;76.6
74484;SHT31;62942;52.462;10.846;2023-12-28T03:10:53;9.1;76.8
74484;SHT31;62942;52.462;10.846;2023-12-28T03:12:03;9.1;76.9
74484;SHT31;62942;52.462;10.846;2023-12-28T03:13:13;9.1;77
74484;SHT31;62942;52.462;10.846;2023-12-28T03:14:13;9.1;77
74484;SHT31;62942;52.462;10.846;2023-12-28T03:15:23;9.1;77.1
74484;SHT31;62942;52.462;10.846;2023-12-28T03:16:33;9.1;77.3
74484;SHT31;62942;52.462;10.846;2023-12-28T03:17:43;9.1;77.3
74484;SHT31;62942;52.462;10.846;2023-12-28T03:18:53;9.1;77.5
74484;SHT31;62942;52.462;10.846;2023-12-28T03:19:53;9.1;77.5
74484;SHT31;62942;52.462;10.846;2023-12-28T03:20:53;9.1;77.7
74484;SHT31;62942;52.462;10.846;2023-12-28T03:22:03;9.1;77.8
74484;SHT31;62942;52.462;10.846;2023-12-28T03:23:13;9.1;78
74484;SHT31;62942;52.462;10.846;2023-12-28T03:24:13;9.1;78.3
74484;SHT31;62942;52.462;10.846;2023-12-28T03:25:13;9.1;78.6
74484;SHT31;62942;52.462;10.846;2023-12-28T03:26:13;9;78.9
74484;SHT31;62942;52.462;10.846;2023-12-28T03:27:23;9;79.2
74484;SHT31;62942;52.462;10.846;2023-12-28T03:28:33;9;79.6
74484;SHT31;62942;52.462;10.846;2023-12-28T03:29:43;9;79.7
74484;SHT31;62942;52.462;10.846;2023-12-28T03:30:43;9;79.9
74484;SHT31;62942;52.462;10.846;2023-12-28T03:31:43;9;80
74484;SHT31;62942;52.462;10.846;2023-12-28T03:32:43;9;80.1
74484;SHT31;62942;52.462;10.846;2023-12-28T03:33:53;9;80.4
74484;SHT31;62942;52.462;10.846;2023-12-28T03:35:03;9;80.7
74484;SHT31;62942;52.462;10.846;2023-12-28T03:36:03;9;80.6
74484;SHT31;62942;52.462;10.846;2023-12-28T03:37:13;9;80.9
74484;SHT31;62942;52.462;10.846;2023-12-28T03:38:13;9;81.3
74484;SHT31;62942;52.462;10.846;2023-12-28T03:39:23;9;81.4
74484;SHT31;62942;52.462;10.846;2023-12-28T03:40:23;9;81.5
74484;SHT31;62942;52.462;10.846;2023-12-28T03:41:33;9.1;81.9
74484;SHT31;62942;52.462;10.846;2023-12-28T03:42:43;9.1;81.7
74484;SHT31;62942;52.462;10.846;2023-12-28T03:43:43;9.1;81.8
74484;SHT31;62942;52.462;10.846;2023-12-28T03:44:53;9.1;82
74484;SHT31;62942;52.462;10.846;2023-12-28T03:46:03;9.1;82.2
74484;SHT31;62942;52.462;10.846;2023-12-28T03:47:13;9.1;82.3
74484;SHT31;62942;52.462;10.846;2023-12-28T03:48:23;9.1;82.5
74484;SHT31;62942;52.462;10.846;2023-12-28T03:49:33;9.1;82.9
74484;SHT31;62942;52.462;10.846;2023-12-28T03:50:34;9.1;82.8
74484;SHT31;62942;52.462;10.846;2023-12-28T03:51:43;9;83.3
74484;SHT31;62942;52.462;10.846;2023-12-28T03:52:53;9;83.1
74484;SHT31;62942;52.462;10.846;2023-12-28T03:54:03;9;83.3
74484;SHT31;62942;52.462;10.846;2023-12-28T03:55:03;9;83.3
74484;SHT31;62942;52.462;10.846;2023-12-28T03:56:21;9;83.4
74484;SHT31;62942;52.462;10.846;2023-12-28T03:57:23;8.9;83.9
74484;SHT31;62942;52.462;10.846;2023-12-28T03:58:33;8.9;84
74484;SHT31;62942;52.462;10.846;2023-12-28T03:59:43;8.9;84.2
74484;SHT31;62942;52.462;10.846;2023-12-28T04:00:53;8.9;84.3
74484;SHT31;62942;52.462;10.846;2023-12-28T04:02:03;8.9;84.6
74484;SHT31;62942;52.462;10.846;2023-12-28T04:03:13;8.9;84.6
74484;SHT31;62942;52.462;10.846;2023-12-28T04:04:23;8.9;84.8
74484;SHT31;62942;52.462;10.846;2023-12-28T04:05:33;8.9;84.7
74484;SHT31;62942;52.462;10.846;2023-12-28T04:06:43;8.9;84.9
74484;SHT31;62942;52.462;10.846;2023-12-28T04:07:43;8.9;85
74484;SHT31;62942;52.462;10.846;2023-12-28T04:08:53;8.9;84.9
74484;SHT31;62942;52.462;10.846;2023-12-28T04:10:03;9;85.2
74484;SHT31;62942;52.462;10.846;2023-12-28T04:11:13;9;85.1
74484;SHT31;62942;52.462;10.846;2023-12-28T04:12:23;8.9;85.2
74484;SHT31;62942;52.462;10.846;2023-12-28T04:13:33;9;85.3
74484;SHT31;62942;52.462;10.846;2023-12-28T04:14:43;9;85.3
74484;SHT31;62942;52.462;10.846;2023-12-28T04:15:53;9;85.3
74484;SHT31;62942;52.462;10.846;2023-12-28T04:17:03;8.9;85.4
74484;SHT31;62942;52.462;10.846;2023-12-28T04:18:13;8.9;85.4
74484;SHT31;62942;52.462;10.846;2023-12-28T04:19:23;8.9;85.5
74484;SHT31;62942;52.462;10.846;2023-12-28T04:20:33;8.9;85.5
74484;SHT31;62942;52.462;10.846;2023-12-28T04:21:33;8.9;85.4
74484;SHT31;62942;52.462;10.846;2023-12-28T04:22:33;8.9;85.5
74484;SHT31;62942;52.462;10.846;2023-12-28T04:23:43;8.9;85.8
74484;SHT31;62942;52.462;10.846;2023-12-28T04:24:53;8.9;85.8
74484;SHT31;62942;52.462;10.846;2023-12-28T04:25:53;8.9;85.8
74484;SHT31;62942;52.462;10.846;2023-12-28T04:26:53;8.9;86
74484;SHT31;62942;52.462;10.846;2023-12-28T04:28:03;8.9;86
74484;SHT31;62942;52.462;10.846;2023-12-28T04:29:03;8.9;85.9
74484;SHT31;62942;52.462;10.846;2023-12-28T04:30:13;8.9;85.9
74484;SHT31;62942;52.462;10.846;2023-12-28T04:31:23;8.9;85.9
74484;SHT31;62942;52.462;10.846;2023-12-28T04:32:23;8.9;85.9
74484;SHT31;62942;52.462;10.846;2023-12-28T04:33:33;8.9;85.9
74484;SHT31;62942;52.462;10.846;2023-12-28T04:34:43;8.9;85.9
74484;SHT31;62942;52.462;10.846;2023-12-28T04:35:53;8.8;86
74484;SHT31;62942;52.462;10.846;2023-12-28T04:37:03;8.8;86
74484;SHT31;62942;52.462;10.846;2023-12-28T04:38:03;8.8;86
74484;SHT31;62942;52.462;10.846;2023-12-28T04:39:03;8.8;85.9
74484;SHT31;62942;52.462;10.846;2023-12-28T04:40:13;8.8;86
74484;SHT31;62942;52.462;10.846;2023-12-28T04:41:23;8.8;86
74484;SHT31;62942;52.462;10.846;2023-12-28T04:42:23;8.8;86
74484;SHT31;62942;52.462;10.846;2023-12-28T04:43:33;8.8;86
74484;SHT31;62942;52.462;10.846;2023-12-28T04:44:43;8.8;86.1
74484;SHT31;62942;52.462;10.846;2023-12-28T04:45:53;8.8;86.2
74484;SHT31;62942;52.462;10.846;2023-12-28T04:47:03;8.8;86.2
74484;SHT31;62942;52.462;10.846;2023-12-28T04:48:13;8.8;86.2
74484;SHT31;62942;52.462;10.846;2023-12-28T04:49:23;8.8;86.1
74484;SHT31;62942;52.462;10.846;2023-12-28T04:50:23;8.8;86
74484;SHT31;62942;52.462;10.846;2023-12-28T04:51:33;8.8;86
74484;SHT31;62942;52.462;10.846;2023-12-28T04:52:43;8.8;86.1
74484;SHT31;62942;52.462;10.846;2023-12-28T04:53:43;8.7;86.1
74484;SHT31;62942;52.462;10.846;2023-12-28T04:54:53;8.7;86.2
74484;SHT31;62942;52.462;10.846;2023-12-28T04:55:53;8.7;86.3
74484;SHT31;62942;52.462;10.846;2023-12-28T04:57:03;8.6;86.3
74484;SHT31;62942;52.462;10.846;2023-12-28T04:58:13;8.6;86.4
74484;SHT31;62942;52.462;10.846;2023-12-28T04:59:23;8.6;86.4
74484;SHT31;62942;52.462;10.846;2023-12-28T05:00:23;8.6;86.5
74484;SHT31;62942;52.462;10.846;2023-12-28T05:01:33;8.5;86.5
74484;SHT31;62942;52.462;10.846;2023-12-28T05:02:33;8.5;86.6
74484;SHT31;62942;52.462;10.846;2023-12-28T05:03:43;8.5;86.6
74484;SHT31;62942;52.462;10.846;2023-12-28T05:04:53;8.5;86.6
74484;SHT31;62942;52.462;10.846;2023-12-28T05:05:53;8.5;86.6
74484;SHT31;62942;52.462;10.846;2023-12-28T05:07:03;8.5;86.5
74484;SHT31;62942;52.462;10.846;2023-12-28T05:08:03;8.5;86.6
74484;SHT31;62942;52.462;10.846;2023-12-28T05:09:13;8.5;86.6
74484;SHT31;62942;52.462;10.846;2023-12-28T05:10:22;8.5;86.5
74484;SHT31;62942;52.462;10.846;2023-12-28T05:11:33;8.4;86.6
74484;SHT31;62942;52.462;10.846;2023-12-28T05:12:33;8.4;86.6
74484;SHT31;62942;52.462;10.846;2023-12-28T05:13:33;8.4;86.6
74484;SHT31;62942;52.462;10.846;2023-12-28T05:14:43;8.4;86.5
74484;SHT31;62942;52.462;10.846;2023-12-28T05:15:53;8.5;86.5
74484;SHT31;62942;52.462;10.846;2023-12-28T05:17:03;8.4;86.5
74484;SHT31;62942;52.462;10.846;2023-12-28T05:18:03;8.4;86.4
74484;SHT31;62942;52.462;10.846;2023-12-28T05:19:13;8.4;86.5
74484;SHT31;62942;52.462;10.846;2023-12-28T05:20:13;8.4;86.5
74484;SHT31;62942;52.462;10.846;2023-12-28T05:21:22;8.3;86.5
74484;SHT31;62942;52.462;10.846;2023-12-28T05:22:22;8.3;86.6
74484;SHT31;62942;52.462;10.846;2023-12-28T05:23:33;8.3;86.7
74484;SHT31;62942;52.462;10.846;2023-12-28T05:24:42;8.3;86.7
74484;SHT31;62942;52.462;10.846;2023-12-28T05:25:43;8.3;86.6
74484;SHT31;62942;52.462;10.846;2023-12-28T05:26:52;8.2;86.7
74484;SHT31;62942;52.462;10.846;2023-12-28T05:28:03;8.2;86.7
74484;SHT31;62942;52.462;10.846;2023-12-28T05:29:03;8.2;86.7
74484;SHT31;62942;52.462;10.846;2023-12-28T05:30:13;8.1;86.8
74484;SHT31;62942;52.462;10.846;2023-12-28T05:31:13;8.1;86.8
74484;SHT31;62942;52.462;10.846;2023-12-28T05:32:22;8.1;86.8
74484;SHT31;62942;52.462;10.846;2023-12-28T05:33:23;8;86.8
74484;SHT31;62942;52.462;10.846;2023-12-28T05:34:32;8;86.8
74484;SHT31;62942;52.462;10.846;2023-12-28T05:35:33;8;86.8
74484;SHT31;62942;52.462;10.846;2023-12-28T05:36:43;8;86.8
74484;SHT31;62942;52.462;10.846;2023-12-28T05:37:52;8;86.8
74484;SHT31;62942;52.462;10.846;2023-12-28T05:38:52;8;86.8
74484;SHT31;62942;52.462;10.846;2023-12-28T05:40:03;7.9;86.8
74484;SHT31;62942;52.462;10.846;2023-12-28T05:41:03;7.9;86.7
74484;SHT31;62942;52.462;10.846;2023-12-28T05:42:13;7.9;86.7
74484;SHT31;62942;52.462;10.846;2023-12-28T05:43:13;7.9;86.7
74484;SHT31;62942;52.462;10.846;2023-12-28T05:44:22;7.8;86.7
74484;SHT31;62942;52.462;10.846;2023-12-28T05:45:32;7.8;86.7
74484;SHT31;62942;52.462;10.846;2023-12-28T05:46:43;7.8;86.7
74484;SHT31;62942;52.462;10.846;2023-12-28T05:47:52;7.9;86.6
74484;SHT31;62942;52.462;10.846;2023-12-28T05:49:02;7.8;86.6
74484;SHT31;62942;52.462;10.846;2023-12-28T05:50:03;7.8;86.5
74484;SHT31;62942;52.462;10.846;2023-12-28T05:51:03;7.8;86.5
74484;SHT31;62942;52.462;10.846;2023-12-28T05:52:12;7.8;86.6
74484;SHT31;62942;52.462;10.846;2023-12-28T05:53:22;7.7;86.5
74484;SHT31;62942;52.462;10.846;2023-12-28T05:54:22;7.8;86.5
74484;SHT31;62942;52.462;10.846;2023-12-28T05:55:32;7.7;86.5
74484;SHT31;62942;52.462;10.846;2023-12-28T05:56:42;7.8;86.5
74484;SHT31;62942;52.462;10.846;2023-12-28T05:57:52;7.7;86.5
74484;SHT31;62942;52.462;10.846;2023-12-28T05:58:52;7.7;86.5
74484;SHT31;62942;52.462;10.846;2023-12-28T06:00:03;7.7;86.5
74484;SHT31;62942;52.462;10.846;2023-12-28T06:01:12;7.7;86.5
74484;SHT31;62942;52.462;10.846;2023-12-28T06:02:12;7.7;86.5
74484;SHT31;62942;52.462;10.846;2023-12-28T06:03:22;7.7;86.4
74484;SHT31;62942;52.462;10.846;2023-12-28T06:04:32;7.7;86.4
74484;SHT31;62942;52.462;10.846;2023-12-28T06:05:42;7.7;86.4
74484;SHT31;62942;52.462;10.846;2023-12-28T06:06:52;7.7;86.3
74484;SHT31;62942;52.462;10.846;2023-12-28T06:07:52;7.7;86.3
74484;SHT31;62942;52.462;10.846;2023-12-28T06:09:02;7.7;86.3
74484;SHT31;62942;52.462;10.846;2023-12-28T06:10:12;7.7;86.2
74484;SHT31;62942;52.462;10.846;2023-12-28T06:11:22;7.7;86.2
74484;SHT31;62942;52.462;10.846;2023-12-28T06:12:32;7.7;86.2
74484;SHT31;62942;52.462;10.846;2023-12-28T06:13:32;7.7;86.2
74484;SHT31;62942;52.462;10.846;2023-12-28T06:14:42;7.8;86.1
74484;SHT31;62942;52.462;10.846;2023-12-28T06:15:52;7.8;86.1
74484;SHT31;62942;52.462;10.846;2023-12-28T06:16:52;7.8;86
74484;SHT31;62942;52.462;10.846;2023-12-28T06:18:03;7.8;86
74484;SHT31;62942;52.462;10.846;2023-12-28T06:19:02;7.8;85.9
74484;SHT31;62942;52.462;10.846;2023-12-28T06:20:12;7.8;85.9
74484;SHT31;62942;52.462;10.846;2023-12-28T06:21:22;7.8;86
74484;SHT31;62942;52.462;10.846;2023-12-28T06:22:22;7.8;86
74484;SHT31;62942;52.462;10.846;2023-12-28T06:23:32;7.8;86.1
74484;SHT31;62942;52.462;10.846;2023-12-28T06:24:42;7.8;86.1
74484;SHT31;62942;52.462;10.846;2023-12-28T06:25:53;7.8;86.1
74484;SHT31;62942;52.462;10.846;2023-12-28T06:27:03;7.8;86.1
74484;SHT31;62942;52.462;10.846;2023-12-28T06:28:03;7.8;86
74484;SHT31;62942;52.462;10.846;2023-12-28T06:29:12;7.8;86.1
74484;SHT31;62942;52.462;10.846;2023-12-28T06:30:22;7.8;86
74484;SHT31;62942;52.462;10.846;2023-12-28T06:31:32;7.8;86
74484;SHT31;62942;52.462;10.846;2023-12-28T06:32:42;7.8;86
74484;SHT31;62942;52.462;10.846;2023-12-28T06:33:52;7.8;86
74484;SHT31;62942;52.462;10.846;2023-12-28T06:35:03;7.8;86
74484;SHT31;62942;52.462;10.846;2023-12-28T06:36:12;7.8;86
74484;SHT31;62942;52.462;10.846;2023-12-28T06:37:22;7.8;86
74484;SHT31;62942;52.462;10.846;2023-12-28T06:38:32;7.8;86.1
74484;SHT31;62942;52.462;10.846;2023-12-28T06:39:33;7.8;86.1
74484;SHT31;62942;52.462;10.846;2023-12-28T06:40:42;7.8;86.2
74484;SHT31;62942;52.462;10.846;2023-12-28T06:41:42;7.8;86.1
74484;SHT31;62942;52.462;10.846;2023-12-28T06:42:52;7.8;86.2
74484;SHT31;62942;52.462;10.846;2023-12-28T06:44:02;7.9;86.1
74484;SHT31;62942;52.462;10.846;2023-12-28T06:45:03;7.9;86
74484;SHT31;62942;52.462;10.846;2023-12-28T06:46:12;7.9;86
74484;SHT31;62942;52.462;10.846;2023-12-28T06:47:12;7.8;86
74484;SHT31;62942;52.462;10.846;2023-12-28T06:48:22;7.9;86.1
74484;SHT31;62942;52.462;10.846;2023-12-28T06:49:32;7.9;86
74484;SHT31;62942;52.462;10.846;2023-12-28T06:50:42;7.9;86
74484;SHT31;62942;52.462;10.846;2023-12-28T06:51:52;7.9;86
74484;SHT31;62942;52.462;10.846;2023-12-28T06:53:02;7.9;85.9
74484;SHT31;62942;52.462;10.846;2023-12-28T06:54:13;7.9;85.9
74484;SHT31;62942;52.462;10.846;2023-12-28T06:55:22;7.9;85.8
74484;SHT31;62942;52.462;10.846;2023-12-28T06:56:32;7.9;85.9
74484;SHT31;62942;52.462;10.846;2023-12-28T06:57:32;7.9;85.9
74484;SHT31;62942;52.462;10.846;2023-12-28T06:58:42;7.9;85.9
74484;SHT31;62942;52.462;10.846;2023-12-28T06:59:42;7.9;85.9
74484;SHT31;62942;52.462;10.846;2023-12-28T07:00:52;7.9;85.9
74484;SHT31;62942;52.462;10.846;2023-12-28T07:02:02;8;85.8
74484;SHT31;62942;52.462;10.846;2023-12-28T07:03:03;7.9;85.8
74484;SHT31;62942;52.462;10.846;2023-12-28T07:04:12;8;85.7
74484;SHT31;62942;52.462;10.846;2023-12-28T07:05:22;8;85.7
74484;SHT31;62942;52.462;10.846;2023-12-28T07:06:22;8;85.7
74484;SHT31;62942;52.462;10.846;2023-12-28T07:07:32;8;85.6
74484;SHT31;62942;52.462;10.846;2023-12-28T07:08:42;8;85.6
74484;SHT31;62942;52.462;10.846;2023-12-28T07:09:52;8;85.6
74484;SHT31;62942;52.462;10.846;2023-12-28T07:10:52;8;85.6
74484;SHT31;62942;52.462;10.846;2023-12-28T07:12:03;8;85.6
74484;SHT31;62942;52.462;10.846;2023-12-28T07:13:12;8;85.6
74484;SHT31;62942;52.462;10.846;2023-12-28T07:14:22;8;85.7
74484;SHT31;62942;52.462;10.846;2023-12-28T07:15:32;8;85.7
74484;SHT31;62942;52.462;10.846;2023-12-28T07:16:32;8;85.7
74484;SHT31;62942;52.462;10.846;2023-12-28T07:17:42;7.9;85.7
74484;SHT31;62942;52.462;10.846;2023-12-28T07:18:52;7.9;85.8